Aérodrome :







RETROUVEZ-NOUS SUR...

 
LOGIN :

S'inscrire | Disclaimer

   EN    FR    IT 

 









Légende :    VFR   VFR Marginal   IFR   IFR Intensif   IFR Très Intensif
Visi : 
Plafond : 
>= 8 km
>= 3000ft
5 à 8 km
1000 à 3000 ft
1500m à 5 km
500 à 1000 ft
800 à 1500m
200 à 500 ft
< 800m
< 200 ft
Symboles :   Orages  Brouillard  Fortes neiges  Fortes précipitations  Vent > 20 kt






- Altitude de l'aérodrome : 1009 ft
- Code IATA : ORH


KORH - Worcester Regional

DERNIER METAR :
  • 110754Z AUTO 15013KT 7SM -RA BKN007 OVC013 22/21 A2976 RMK AO2 RAE10B29 CIG 004V011 SLP072 P0000 T02220206

METARs EXPIRÉS :
  • 110716Z AUTO 14013KT 10SM BKN005 OVC012 22/21 A2978 RMK AO2 RAE10 CIG 002V009 P0000 T02220211
  • 110654Z AUTO 14010KT 9SM -RA OVC004 22/21 A2979 RMK AO2 RAB03E36B52 CIG 002V007 SLP080 P0000 T02220211
  • 110554Z AUTO 13010KT 10SM OVC003 22/21 A2981 RMK AO2 RAE02 CIG 002V007 SLP088 P0000 60038 T02220211 10228 20217 58015

TAF KORH
Valide du 11 à 08h jusqu'au 12 à 06h UTC


110820Z 1108/1206 15013KT P6SM VCSH OVC007
FM111200 18015G22KT P6SM BKN015
FM111400 20014G26KT P6SM BKN025
FM111500 21013G26KT P6SM BKN040
FM120200 20012KT 5SM BR OVC015
FM120400 21011KT 4SM BR OVC010
FIR KZBW / Amérique du Nord



MET'MAP, la Météo Aéronautique d'un coup d'oeil ! - Copyright ORBIFLY Décembre 2007 - Disclaimer

ORBIFLY MET'MAP TEAM :

Programmation & Développement : Alexandra Zaïnal
Sur une idée originale de : Baudouin d'Aumeries
Assistance à la programmation : Marc-Olivier Méhu
Soutien technique & logistique : Manuel Goepfert

Contact : metmap@orbifly.com




SOURCES & CREDITS :

   NOAA